sensor_id;sensor_type;location;lat;lon;timestamp;pressure;altitude;pressure_sealevel;temperature;humidity
47280;BME280;34064;44.942;0.008;2023-11-21T00:02:00;98968.31;;;13.39;67.82
47280;BME280;34064;44.942;0.008;2023-11-21T00:04:26;98973.06;;;13.35;68.04
47280;BME280;34064;44.942;0.008;2023-11-21T00:06:54;98966.03;;;13.34;67.95
47280;BME280;34064;44.942;0.008;2023-11-21T00:09:21;98965.16;;;13.34;67.98
47280;BME280;34064;44.942;0.008;2023-11-21T00:11:47;98967.72;;;13.35;68.39
47280;BME280;34064;44.942;0.008;2023-11-21T00:14:14;98963.81;;;13.39;67.99
47280;BME280;34064;44.942;0.008;2023-11-21T00:16:43;98950.94;;;13.45;68.23
47280;BME280;34064;44.942;0.008;2023-11-21T00:19:10;98951.19;;;13.41;68.37
47280;BME280;34064;44.942;0.008;2023-11-21T00:21:36;98947.56;;;13.43;68.25
47280;BME280;34064;44.942;0.008;2023-11-21T00:24:02;98949.25;;;13.44;68.10
47280;BME280;34064;44.942;0.008;2023-11-21T00:26:29;98954.31;;;13.47;68.21
47280;BME280;34064;44.942;0.008;2023-11-21T00:28:58;98945.63;;;13.45;68.36
47280;BME280;34064;44.942;0.008;2023-11-21T00:31:24;98948.41;;;13.43;68.50
47280;BME280;34064;44.942;0.008;2023-11-21T00:33:50;98947.88;;;13.49;68.43
47280;BME280;34064;44.942;0.008;2023-11-21T00:36:17;98938.28;;;13.47;68.36
47280;BME280;34064;44.942;0.008;2023-11-21T00:38:43;98938.28;;;13.47;68.61
47280;BME280;34064;44.942;0.008;2023-11-21T00:41:10;98934.38;;;13.41;68.85
47280;BME280;34064;44.942;0.008;2023-11-21T00:43:36;98934.59;;;13.38;69.03
47280;BME280;34064;44.942;0.008;2023-11-21T00:46:06;98938.00;;;13.40;69.03
47280;BME280;34064;44.942;0.008;2023-11-21T00:48:35;98938.97;;;13.39;69.07
47280;BME280;34064;44.942;0.008;2023-11-21T00:51:01;98942.47;;;13.39;69.25
47280;BME280;34064;44.942;0.008;2023-11-21T00:53:28;98930.84;;;13.40;69.31
47280;BME280;34064;44.942;0.008;2023-11-21T00:55:54;98926.78;;;13.46;69.24
47280;BME280;34064;44.942;0.008;2023-11-21T00:58:26;98928.47;;;13.47;69.17
47280;BME280;34064;44.942;0.008;2023-11-21T01:00:53;98920.34;;;13.49;69.25
47280;BME280;34064;44.942;0.008;2023-11-21T01:03:19;98930.91;;;13.50;69.44
47280;BME280;34064;44.942;0.008;2023-11-21T01:05:46;98925.41;;;13.52;69.39
47280;BME280;34064;44.942;0.008;2023-11-21T01:08:12;98927.94;;;13.53;69.42
47280;BME280;34064;44.942;0.008;2023-11-21T01:10:39;98921.78;;;13.53;69.36
47280;BME280;34064;44.942;0.008;2023-11-21T01:13:05;98917.97;;;13.55;69.35
47280;BME280;34064;44.942;0.008;2023-11-21T01:15:36;98908.84;;;13.58;69.56
47280;BME280;34064;44.942;0.008;2023-11-21T01:18:02;98911.53;;;13.58;69.55
47280;BME280;34064;44.942;0.008;2023-11-21T01:20:29;98906.06;;;13.60;69.59
47280;BME280;34064;44.942;0.008;2023-11-21T01:22:56;98900.44;;;13.63;69.41
47280;BME280;34064;44.942;0.008;2023-11-21T01:25:22;98906.34;;;13.66;69.37
47280;BME280;34064;44.942;0.008;2023-11-21T01:27:48;98907.06;;;13.68;69.45
47280;BME280;34064;44.942;0.008;2023-11-21T01:30:15;98892.03;;;13.67;69.42
47280;BME280;34064;44.942;0.008;2023-11-21T01:32:42;98896.97;;;13.72;69.20
47280;BME280;34064;44.942;0.008;2023-11-21T01:35:10;98890.06;;;13.69;69.26
47280;BME280;34064;44.942;0.008;2023-11-21T01:37:37;98883.34;;;13.75;69.24
47280;BME280;34064;44.942;0.008;2023-11-21T01:40:04;98884.47;;;13.72;69.44
47280;BME280;34064;44.942;0.008;2023-11-21T01:42:34;98883.03;;;13.68;69.84
47280;BME280;34064;44.942;0.008;2023-11-21T01:45:01;98885.72;;;13.68;69.92
47280;BME280;34064;44.942;0.008;2023-11-21T01:47:34;98888.84;;;13.73;69.67
47280;BME280;34064;44.942;0.008;2023-11-21T01:50:02;98883.34;;;13.75;69.69
47280;BME280;34064;44.942;0.008;2023-11-21T01:52:31;98880.53;;;13.77;69.83
47280;BME280;34064;44.942;0.008;2023-11-21T01:54:59;98878.16;;;13.73;69.90
47280;BME280;34064;44.942;0.008;2023-11-21T01:57:25;98871.81;;;13.75;69.93
47280;BME280;34064;44.942;0.008;2023-11-21T01:59:54;98862.97;;;13.74;69.99
47280;BME280;34064;44.942;0.008;2023-11-21T02:02:20;98862.25;;;13.72;69.99
47280;BME280;34064;44.942;0.008;2023-11-21T02:04:47;98867.59;;;13.72;70.02
47280;BME280;34064;44.942;0.008;2023-11-21T02:07:13;98870.41;;;13.70;70.11
47280;BME280;34064;44.942;0.008;2023-11-21T02:09:39;98867.03;;;13.68;70.02
47280;BME280;34064;44.942;0.008;2023-11-21T02:12:08;98869.56;;;13.70;69.89
47280;BME280;34064;44.942;0.008;2023-11-21T02:14:36;98870.69;;;13.67;70.08
47280;BME280;34064;44.942;0.008;2023-11-21T02:17:03;98873.09;;;13.70;69.72
47280;BME280;34064;44.942;0.008;2023-11-21T02:19:29;98862.41;;;13.70;69.88
47280;BME280;34064;44.942;0.008;2023-11-21T02:22:00;98865.06;;;13.70;69.90
47280;BME280;34064;44.942;0.008;2023-11-21T02:24:32;98870.69;;;13.67;69.78
47280;BME280;34064;44.942;0.008;2023-11-21T02:26:59;98881.34;;;13.67;69.85
47280;BME280;34064;44.942;0.008;2023-11-21T02:29:26;98874.31;;;13.66;69.82
47280;BME280;34064;44.942;0.008;2023-11-21T02:31:54;98869.97;;;13.65;69.87
47280;BME280;34064;44.942;0.008;2023-11-21T02:34:22;98865.91;;;13.71;69.56
47280;BME280;34064;44.942;0.008;2023-11-21T02:36:48;98861.69;;;13.68;69.69
47280;BME280;34064;44.942;0.008;2023-11-21T02:39:18;98862.66;;;13.67;69.74
47280;BME280;34064;44.942;0.008;2023-11-21T02:41:48;98864.22;;;13.70;69.70
47280;BME280;34064;44.942;0.008;2023-11-21T02:44:15;98866.06;;;13.69;69.82
47280;BME280;34064;44.942;0.008;2023-11-21T02:46:41;98863.38;;;13.69;69.86
47280;BME280;34064;44.942;0.008;2023-11-21T02:49:08;98857.78;;;13.72;69.83
47280;BME280;34064;44.942;0.008;2023-11-21T02:51:36;98857.78;;;13.72;69.85
47280;BME280;34064;44.942;0.008;2023-11-21T02:54:05;98857.38;;;13.77;69.66
47280;BME280;34064;44.942;0.008;2023-11-21T02:56:33;98859.63;;;13.82;69.56
47280;BME280;34064;44.942;0.008;2023-11-21T02:59:00;98862.31;;;13.82;69.57
47280;BME280;34064;44.942;0.008;2023-11-21T03:01:27;98869.34;;;13.83;69.50
47280;BME280;34064;44.942;0.008;2023-11-21T03:03:54;98853.88;;;13.86;69.50
47280;BME280;34064;44.942;0.008;2023-11-21T03:06:22;98854.44;;;13.90;69.45
47280;BME280;34064;44.942;0.008;2023-11-21T03:08:48;98846.84;;;13.95;69.55
47280;BME280;34064;44.942;0.008;2023-11-21T03:11:15;98839.56;;;13.97;69.40
47280;BME280;34064;44.942;0.008;2023-11-21T03:13:42;98836.16;;;13.95;69.44
47280;BME280;34064;44.942;0.008;2023-11-21T03:16:09;98838.16;;;13.93;69.55
47280;BME280;34064;44.942;0.008;2023-11-21T03:18:37;98830.84;;;13.95;69.53
47280;BME280;34064;44.942;0.008;2023-11-21T03:21:05;98832.53;;;13.96;69.58
47280;BME280;34064;44.942;0.008;2023-11-21T03:23:31;98834.94;;;13.99;69.64
47280;BME280;34064;44.942;0.008;2023-11-21T03:25:58;98832.25;;;13.99;69.53
47280;BME280;34064;44.942;0.008;2023-11-21T03:28:26;98834.94;;;13.99;69.62
47280;BME280;34064;44.942;0.008;2023-11-21T03:30:53;98835.63;;;14.01;69.50
47280;BME280;34064;44.942;0.008;2023-11-21T03:33:19;98830.28;;;14.01;69.69
47280;BME280;34064;44.942;0.008;2023-11-21T03:35:46;98830.00;;;14.04;69.61
47280;BME280;34064;44.942;0.008;2023-11-21T03:38:14;98844.31;;;14.03;69.66
47280;BME280;34064;44.942;0.008;2023-11-21T03:40:40;98839.59;;;14.07;69.61
47280;BME280;34064;44.942;0.008;2023-11-21T03:43:06;98832.41;;;14.08;69.58
47280;BME280;34064;44.942;0.008;2023-11-21T03:45:33;98836.50;;;14.12;69.66
47280;BME280;34064;44.942;0.008;2023-11-21T03:47:59;98838.16;;;14.13;69.51
47280;BME280;34064;44.942;0.008;2023-11-21T03:50:29;98832.53;;;14.16;69.56
47280;BME280;34064;44.942;0.008;2023-11-21T03:52:55;98831.97;;;14.12;69.77
47280;BME280;34064;44.942;0.008;2023-11-21T03:55:21;98831.00;;;14.13;69.51
47280;BME280;34064;44.942;0.008;2023-11-21T03:57:49;98830.84;;;14.15;69.62
47280;BME280;34064;44.942;0.008;2023-11-21T04:00:16;98826.94;;;14.19;69.59
47280;BME280;34064;44.942;0.008;2023-11-21T04:02:43;98844.91;;;14.17;69.83
47280;BME280;34064;44.942;0.008;2023-11-21T04:05:09;98834.94;;;14.19;69.66
47280;BME280;34064;44.942;0.008;2023-11-21T04:07:36;98841.97;;;14.20;69.60
47280;BME280;34064;44.942;0.008;2023-11-21T04:10:05;98844.66;;;14.20;69.73
47280;BME280;34064;44.942;0.008;2023-11-21T04:12:35;98844.66;;;14.20;69.82
47280;BME280;34064;44.942;0.008;2023-11-21T04:15:01;98853.34;;;14.22;69.66
47280;BME280;34064;44.942;0.008;2023-11-21T04:17:27;98855.03;;;14.23;69.69
47280;BME280;34064;44.942;0.008;2023-11-21T04:19:53;98852.94;;;14.27;69.61
47280;BME280;34064;44.942;0.008;2023-11-21T04:22:20;98858.84;;;14.30;69.51
47280;BME280;34064;44.942;0.008;2023-11-21T04:24:46;98856.47;;;14.27;69.71
47280;BME280;34064;44.942;0.008;2023-11-21T04:27:13;98863.63;;;14.27;69.69
47280;BME280;34064;44.942;0.008;2023-11-21T04:29:40;98863.50;;;14.28;69.69
47280;BME280;34064;44.942;0.008;2023-11-21T04:32:07;98865.19;;;14.29;69.61
47280;BME280;34064;44.942;0.008;2023-11-21T04:34:34;98864.06;;;14.32;69.67
47280;BME280;34064;44.942;0.008;2023-11-21T04:37:00;98868.53;;;14.31;69.62
47280;BME280;34064;44.942;0.008;2023-11-21T04:39:27;98869.25;;;14.33;69.65
47280;BME280;34064;44.942;0.008;2023-11-21T04:41:53;98862.66;;;14.38;69.54
47280;BME280;34064;44.942;0.008;2023-11-21T04:44:20;98869.97;;;14.35;69.61
47280;BME280;34064;44.942;0.008;2023-11-21T04:46:46;98873.59;;;14.34;69.67
47280;BME280;34064;44.942;0.008;2023-11-21T04:49:13;98881.63;;;14.34;69.98
47280;BME280;34064;44.942;0.008;2023-11-21T04:51:40;98871.66;;;14.37;69.80
47280;BME280;34064;44.942;0.008;2023-11-21T04:54:06;98872.22;;;14.40;70.09
47280;BME280;34064;44.942;0.008;2023-11-21T04:56:33;98870.78;;;14.36;70.14
47280;BME280;34064;44.942;0.008;2023-11-21T04:58:59;98866.31;;;14.37;70.02
47280;BME280;34064;44.942;0.008;2023-11-21T05:01:25;98876.13;;;14.36;70.02
47280;BME280;34064;44.942;0.008;2023-11-21T05:03:52;98879.09;;;14.33;70.58
47280;BME280;34064;44.942;0.008;2023-11-21T05:06:18;98873.88;;;14.31;70.53
47280;BME280;34064;44.942;0.008;2023-11-21T05:08:44;98871.22;;;14.31;70.43
47280;BME280;34064;44.942;0.008;2023-11-21T05:11:11;98873.88;;;14.31;70.43
47280;BME280;34064;44.942;0.008;2023-11-21T05:13:37;98878.53;;;14.29;70.53
47280;BME280;34064;44.942;0.008;2023-11-21T05:16:05;98877.69;;;14.29;70.65
47280;BME280;34064;44.942;0.008;2023-11-21T05:18:33;98883.75;;;14.31;70.52
47280;BME280;34064;44.942;0.008;2023-11-21T05:21:00;98884.59;;;14.41;70.20
47280;BME280;34064;44.942;0.008;2023-11-21T05:23:27;98886.84;;;14.46;70.12
47280;BME280;34064;44.942;0.008;2023-11-21T05:25:53;98883.91;;;14.49;70.03
47280;BME280;34064;44.942;0.008;2023-11-21T05:28:19;98890.22;;;14.48;69.98
47280;BME280;34064;44.942;0.008;2023-11-21T05:30:46;98889.25;;;14.49;70.01
47280;BME280;34064;44.942;0.008;2023-11-21T05:33:12;98894.44;;;14.50;69.98
47280;BME280;34064;44.942;0.008;2023-11-21T05:35:38;98895.28;;;14.51;69.85
47280;BME280;34064;44.942;0.008;2023-11-21T05:38:05;98890.91;;;14.50;69.87
47280;BME280;34064;44.942;0.008;2023-11-21T05:40:31;98893.56;;;14.50;70.04
47280;BME280;34064;44.942;0.008;2023-11-21T05:42:57;98893.72;;;14.48;70.19
47280;BME280;34064;44.942;0.008;2023-11-21T05:45:24;98891.06;;;14.48;70.05
47280;BME280;34064;44.942;0.008;2023-11-21T05:47:50;98887.41;;;14.49;70.02
47280;BME280;34064;44.942;0.008;2023-11-21T05:50:17;98887.97;;;14.53;69.91
47280;BME280;34064;44.942;0.008;2023-11-21T05:52:45;98879.22;;;14.51;69.85
47280;BME280;34064;44.942;0.008;2023-11-21T05:55:12;98894.28;;;14.52;69.96
47280;BME280;34064;44.942;0.008;2023-11-21T05:57:40;98886.25;;;14.52;69.95
47280;BME280;34064;44.942;0.008;2023-11-21T06:00:08;98893.56;;;14.50;69.91
47280;BME280;34064;44.942;0.008;2023-11-21T06:02:52;98893.56;;;14.50;69.85
47280;BME280;34064;44.942;0.008;2023-11-21T06:05:21;98897.25;;;14.49;69.77
47280;BME280;34064;44.942;0.008;2023-11-21T06:07:50;98901.91;;;14.47;70.06
47280;BME280;34064;44.942;0.008;2023-11-21T06:10:17;98898.91;;;14.50;69.78
47280;BME280;34064;44.942;0.008;2023-11-21T06:12:45;98898.25;;;14.48;69.95
47280;BME280;34064;44.942;0.008;2023-11-21T06:15:12;98901.59;;;14.50;69.97
47280;BME280;34064;44.942;0.008;2023-11-21T06:17:42;98910.47;;;14.50;69.76
47280;BME280;34064;44.942;0.008;2023-11-21T06:20:11;98908.63;;;14.51;69.85
47280;BME280;34064;44.942;0.008;2023-11-21T06:22:44;98913.00;;;14.52;69.82
47280;BME280;34064;44.942;0.008;2023-11-21T06:25:12;98911.31;;;14.51;70.03
47280;BME280;34064;44.942;0.008;2023-11-21T06:27:46;98911.91;;;14.55;69.86
47280;BME280;34064;44.942;0.008;2023-11-21T06:30:16;98914.69;;;14.53;70.01
47280;BME280;34064;44.942;0.008;2023-11-21T06:32:44;98907.66;;;14.52;69.97
47280;BME280;34064;44.942;0.008;2023-11-21T06:35:11;98911.03;;;14.54;69.87
47280;BME280;34064;44.942;0.008;2023-11-21T06:37:39;98912.72;;;14.55;69.81
47280;BME280;34064;44.942;0.008;2023-11-21T06:40:06;98906.56;;;14.55;69.92
47280;BME280;34064;44.942;0.008;2023-11-21T06:42:33;98918.06;;;14.55;69.82
47280;BME280;34064;44.942;0.008;2023-11-21T06:45:04;98919.75;;;14.56;69.91
47280;BME280;34064;44.942;0.008;2023-11-21T06:47:31;98917.38;;;14.53;70.06
47280;BME280;34064;44.942;0.008;2023-11-21T06:49:58;98922.72;;;14.53;70.16
47280;BME280;34064;44.942;0.008;2023-11-21T06:52:25;98927.78;;;14.56;70.12
47280;BME280;34064;44.942;0.008;2023-11-21T06:54:51;98923.28;;;14.57;69.93
47280;BME280;34064;44.942;0.008;2023-11-21T06:57:18;98928.50;;;14.58;69.95
47280;BME280;34064;44.942;0.008;2023-11-21T06:59:44;98923.72;;;14.62;70.00
47280;BME280;34064;44.942;0.008;2023-11-21T07:02:10;98930.19;;;14.59;70.08
47280;BME280;34064;44.942;0.008;2023-11-21T07:04:37;98920.59;;;14.57;70.02
47280;BME280;34064;44.942;0.008;2023-11-21T07:07:05;98930.88;;;14.61;70.08
47280;BME280;34064;44.942;0.008;2023-11-21T07:09:33;98929.31;;;14.59;70.14
47280;BME280;34064;44.942;0.008;2023-11-21T07:11:59;98933.84;;;14.58;70.18
47280;BME280;34064;44.942;0.008;2023-11-21T07:14:26;98931.16;;;14.58;70.29
47280;BME280;34064;44.942;0.008;2023-11-21T07:16:52;98936.09;;;14.63;70.18
47280;BME280;34064;44.942;0.008;2023-11-21T07:19:18;98933.53;;;14.61;70.12
47280;BME280;34064;44.942;0.008;2023-11-21T07:21:45;98936.91;;;14.63;70.29
47280;BME280;34064;44.942;0.008;2023-11-21T07:24:12;98940.56;;;14.62;70.20
47280;BME280;34064;44.942;0.008;2023-11-21T07:26:38;98932.84;;;14.59;70.33
47280;BME280;34064;44.942;0.008;2023-11-21T07:29:04;98941.44;;;14.63;70.34
47280;BME280;34064;44.942;0.008;2023-11-21T07:31:32;98944.53;;;14.58;70.57
47280;BME280;34064;44.942;0.008;2023-11-21T07:34:00;98945.94;;;14.62;70.60
47280;BME280;34064;44.942;0.008;2023-11-21T07:36:27;98956.91;;;14.59;70.38
47280;BME280;34064;44.942;0.008;2023-11-21T07:38:53;98957.59;;;14.61;70.54
47280;BME280;34064;44.942;0.008;2023-11-21T07:41:20;98954.94;;;14.61;70.48
47280;BME280;34064;44.942;0.008;2023-11-21T07:43:47;98964.13;;;14.69;70.22
47280;BME280;34064;44.942;0.008;2023-11-21T07:46:13;98966.19;;;14.65;70.29
47280;BME280;34064;44.942;0.008;2023-11-21T07:48:41;98969.88;;;14.64;70.53
47280;BME280;34064;44.942;0.008;2023-11-21T07:51:08;98973.38;;;14.64;70.44
47280;BME280;34064;44.942;0.008;2023-11-21T07:53:36;98976.63;;;14.68;70.52
47280;BME280;34064;44.942;0.008;2023-11-21T07:56:07;98973.13;;;14.68;70.54
47280;BME280;34064;44.942;0.008;2023-11-21T07:58:36;98978.88;;;14.73;70.33
47280;BME280;34064;44.942;0.008;2023-11-21T08:01:05;98985.94;;;14.74;70.34
47280;BME280;34064;44.942;0.008;2023-11-21T08:03:31;98983.41;;;14.72;70.53
47280;BME280;34064;44.942;0.008;2023-11-21T08:05:58;98986.75;;;14.74;70.40
47280;BME280;34064;44.942;0.008;2023-11-21T08:08:26;98991.28;;;14.74;70.43
47280;BME280;34064;44.942;0.008;2023-11-21T08:10:53;98998.06;;;14.78;70.56
47280;BME280;34064;44.942;0.008;2023-11-21T08:13:27;98991.28;;;14.74;70.51
47280;BME280;34064;44.942;0.008;2023-11-21T08:15:58;98997.19;;;14.77;70.59
47280;BME280;34064;44.942;0.008;2023-11-21T08:18:29;98994.81;;;14.84;70.40
47280;BME280;34064;44.942;0.008;2023-11-21T08:20:58;99006.47;;;14.83;70.34
47280;BME280;34064;44.942;0.008;2023-11-21T08:23:24;99003.81;;;14.83;70.53
47280;BME280;34064;44.942;0.008;2023-11-21T08:25:55;99009.44;;;14.90;70.27
47280;BME280;34064;44.942;0.008;2023-11-21T08:28:21;99006.22;;;14.86;70.62
47280;BME280;34064;44.942;0.008;2023-11-21T08:30:49;99001.69;;;14.87;70.54
47280;BME280;34064;44.942;0.008;2023-11-21T08:33:15;98999.59;;;14.90;70.44
47280;BME280;34064;44.942;0.008;2023-11-21T08:35:42;98996.78;;;14.92;70.32
47280;BME280;34064;44.942;0.008;2023-11-21T08:38:08;99004.81;;;14.92;70.34
47280;BME280;34064;44.942;0.008;2023-11-21T08:40:36;99007.59;;;14.90;70.44
47280;BME280;34064;44.942;0.008;2023-11-21T08:43:02;99005.66;;;14.92;70.29
47280;BME280;34064;44.942;0.008;2023-11-21T08:45:30;99001.13;;;14.93;70.39
47280;BME280;34064;44.942;0.008;2023-11-21T08:47:58;98996.38;;;14.96;70.39
47280;BME280;34064;44.942;0.008;2023-11-21T08:50:24;99004.09;;;15.00;70.39
47280;BME280;34064;44.942;0.008;2023-11-21T08:52:51;98995.78;;;15.03;70.21
47280;BME280;34064;44.942;0.008;2023-11-21T08:55:17;98999.19;;;15.05;70.29
47280;BME280;34064;44.942;0.008;2023-11-21T08:57:46;98994.66;;;15.05;70.12
47280;BME280;34064;44.942;0.008;2023-11-21T09:00:15;98999.03;;;15.06;70.17
47280;BME280;34064;44.942;0.008;2023-11-21T09:02:43;99001.28;;;15.11;70.12
47280;BME280;34064;44.942;0.008;2023-11-21T09:05:13;99003.69;;;15.14;70.19
47280;BME280;34064;44.942;0.008;2023-11-21T09:07:41;99006.19;;;15.16;70.06
47280;BME280;34064;44.942;0.008;2023-11-21T09:10:08;99011.69;;;15.14;69.99
47280;BME280;34064;44.942;0.008;2023-11-21T09:12:37;99007.31;;;15.23;69.72
47280;BME280;34064;44.942;0.008;2023-11-21T09:15:05;99014.91;;;15.27;69.81
47280;BME280;34064;44.942;0.008;2023-11-21T09:17:35;99007.88;;;15.36;69.48
47280;BME280;34064;44.942;0.008;2023-11-21T09:20:02;99002.78;;;15.43;69.59
47280;BME280;34064;44.942;0.008;2023-11-21T09:22:31;99012.63;;;15.42;69.48
47280;BME280;34064;44.942;0.008;2023-11-21T09:24:58;99009.84;;;15.44;69.49
47280;BME280;34064;44.942;0.008;2023-11-21T09:27:24;99014.88;;;15.47;69.47
47280;BME280;34064;44.942;0.008;2023-11-21T09:29:51;99008.53;;;15.48;69.43
47280;BME280;34064;44.942;0.008;2023-11-21T09:32:19;99010.78;;;15.63;69.10
47280;BME280;34064;44.942;0.008;2023-11-21T09:34:48;99015.13;;;15.64;69.30
47280;BME280;34064;44.942;0.008;2023-11-21T09:37:14;99019.59;;;15.73;69.17
47280;BME280;34064;44.942;0.008;2023-11-21T09:39:40;99021.19;;;15.75;69.13
47280;BME280;34064;44.942;0.008;2023-11-21T09:42:25;99025.09;;;15.81;68.84
47280;BME280;34064;44.942;0.008;2023-11-21T09:45:13;99023.25;;;15.82;68.94
47280;BME280;34064;44.942;0.008;2023-11-21T09:47:43;99023.09;;;15.83;68.91
47280;BME280;34064;44.942;0.008;2023-11-21T09:50:09;99022.84;;;15.86;68.67
47280;BME280;34064;44.942;0.008;2023-11-21T09:53:00;99035.53;;;15.84;68.48
47280;BME280;34064;44.942;0.008;2023-11-21T09:55:30;99034.25;;;15.79;68.35
47280;BME280;34064;44.942;0.008;2023-11-21T09:58:03;99037.91;;;15.78;68.56
47280;BME280;34064;44.942;0.008;2023-11-21T10:00:32;99035.66;;;15.73;68.49
47280;BME280;34064;44.942;0.008;2023-11-21T10:02:59;99052.75;;;15.72;68.47
47280;BME280;34064;44.942;0.008;2023-11-21T10:05:26;99050.34;;;15.69;68.48
47280;BME280;34064;44.942;0.008;2023-11-21T10:07:53;99053.63;;;15.63;68.33
47280;BME280;34064;44.942;0.008;2023-11-21T10:10:20;99057.84;;;15.55;68.52
47280;BME280;34064;44.942;0.008;2023-11-21T10:12:50;99054.06;;;15.58;68.41
47280;BME280;34064;44.942;0.008;2023-11-21T10:15:23;99054.06;;;15.48;68.79
47280;BME280;34064;44.942;0.008;2023-11-21T10:17:53;99052.09;;;15.50;68.51
47280;BME280;34064;44.942;0.008;2023-11-21T10:20:24;99049.81;;;15.55;68.66
47280;BME280;34064;44.942;0.008;2023-11-21T10:22:50;99050.66;;;15.56;68.73
47280;BME280;34064;44.942;0.008;2023-11-21T10:25:17;99053.91;;;15.59;68.56
47280;BME280;34064;44.942;0.008;2023-11-21T10:27:48;99049.53;;;15.58;68.83
47280;BME280;34064;44.942;0.008;2023-11-21T10:30:17;99048.94;;;15.65;68.68
47280;BME280;34064;44.942;0.008;2023-11-21T10:32:44;99046.97;;;15.67;68.66
47280;BME280;34064;44.942;0.008;2023-11-21T10:35:11;99041.03;;;15.83;68.59
47280;BME280;34064;44.942;0.008;2023-11-21T10:37:40;99034.66;;;15.94;68.24
47280;BME280;34064;44.942;0.008;2023-11-21T10:40:12;99043.69;;;15.93;67.75
47280;BME280;34064;44.942;0.008;2023-11-21T10:42:38;99048.06;;;15.94;67.20
47280;BME280;34064;44.942;0.008;2023-11-21T10:45:06;99044.28;;;15.86;67.68
47280;BME280;34064;44.942;0.008;2023-11-21T10:47:41;99041.59;;;15.86;67.71
47280;BME280;34064;44.942;0.008;2023-11-21T10:50:08;99045.69;;;15.90;67.77
47280;BME280;34064;44.942;0.008;2023-11-21T10:52:39;99044.38;;;15.95;67.84
47280;BME280;34064;44.942;0.008;2023-11-21T10:55:34;99046.09;;;15.96;67.61
47280;BME280;34064;44.942;0.008;2023-11-21T10:58:04;99048.47;;;15.99;67.66
47280;BME280;34064;44.942;0.008;2023-11-21T11:00:32;99036.72;;;16.10;67.23
47280;BME280;34064;44.942;0.008;2023-11-21T11:02:59;99036.28;;;16.14;66.93
47280;BME280;34064;44.942;0.008;2023-11-21T11:05:30;99040.72;;;16.05;66.64
47280;BME280;34064;44.942;0.008;2023-11-21T11:08:08;99029.28;;;16.03;67.13
47280;BME280;34064;44.942;0.008;2023-11-21T11:10:38;99039.84;;;16.05;66.51
47280;BME280;34064;44.942;0.008;2023-11-21T11:13:06;99041.81;;;16.03;67.01
47280;BME280;34064;44.942;0.008;2023-11-21T11:15:32;99040.53;;;16.07;67.07
47280;BME280;34064;44.942;0.008;2023-11-21T11:17:59;99042.94;;;16.10;66.54
47280;BME280;34064;44.942;0.008;2023-11-21T11:20:31;99034.03;;;16.10;65.88
47280;BME280;34064;44.942;0.008;2023-11-21T11:34:35;99044.03;;;16.17;65.91
47280;BME280;34064;44.942;0.008;2023-11-21T11:37:07;99043.34;;;16.15;65.37
47280;BME280;34064;44.942;0.008;2023-11-21T11:39:38;99034.69;;;16.21;65.31
47280;BME280;34064;44.942;0.008;2023-11-21T11:42:13;99026.75;;;16.30;64.97
47280;BME280;34064;44.942;0.008;2023-11-21T11:47:16;99003.16;;;16.61;64.60
47280;BME280;34064;44.942;0.008;2023-11-21T11:49:59;98995.34;;;16.86;64.41
47280;BME280;34064;44.942;0.008;2023-11-21T11:52:33;98987.53;;;17.11;63.60
47280;BME280;34064;44.942;0.008;2023-11-21T11:55:03;98993.00;;;17.19;63.75
47280;BME280;34064;44.942;0.008;2023-11-21T11:57:31;98978.63;;;17.28;62.90
47280;BME280;34064;44.942;0.008;2023-11-21T12:00:20;98972.09;;;17.31;61.45
47280;BME280;34064;44.942;0.008;2023-11-21T12:02:59;98984.09;;;17.19;62.05
47280;BME280;34064;44.942;0.008;2023-11-21T12:05:29;98996.75;;;17.08;63.13
47280;BME280;34064;44.942;0.008;2023-11-21T12:08:00;98991.69;;;17.05;63.12
47280;BME280;34064;44.942;0.008;2023-11-21T12:10:31;99001.69;;;16.95;62.73
47280;BME280;34064;44.942;0.008;2023-11-21T12:16:21;99005.69;;;16.63;61.85
47280;BME280;34064;44.942;0.008;2023-11-21T12:18:49;99007.66;;;16.61;61.73
47280;BME280;34064;44.942;0.008;2023-11-21T12:21:15;99017.31;;;16.53;62.38
47280;BME280;34064;44.942;0.008;2023-11-21T12:23:42;99013.81;;;16.71;62.05
47280;BME280;34064;44.942;0.008;2023-11-21T12:26:08;99001.53;;;16.87;62.43
47280;BME280;34064;44.942;0.008;2023-11-21T12:28:36;99000.75;;;17.04;61.88
47280;BME280;34064;44.942;0.008;2023-11-21T12:31:02;99001.22;;;16.99;60.40
47280;BME280;34064;44.942;0.008;2023-11-21T12:33:29;99005.53;;;16.82;61.21
47280;BME280;34064;44.942;0.008;2023-11-21T12:35:56;98998.56;;;16.90;61.35
47280;BME280;34064;44.942;0.008;2023-11-21T12:38:23;98993.53;;;17.05;61.35
47280;BME280;34064;44.942;0.008;2023-11-21T12:40:51;98973.69;;;17.42;59.57
47280;BME280;34064;44.942;0.008;2023-11-21T12:43:17;98973.47;;;17.35;59.52
47280;BME280;34064;44.942;0.008;2023-11-21T12:45:47;98975.72;;;17.22;59.76
47280;BME280;34064;44.942;0.008;2023-11-21T12:48:13;98977.66;;;17.11;60.18
47280;BME280;34064;44.942;0.008;2023-11-21T12:50:41;98986.31;;;17.05;59.85
47280;BME280;34064;44.942;0.008;2023-11-21T12:53:09;98988.69;;;16.90;60.69
47280;BME280;34064;44.942;0.008;2023-11-21T12:55:38;98995.50;;;16.84;59.96
47280;BME280;34064;44.942;0.008;2023-11-21T12:58:06;99005.91;;;16.69;60.09
47280;BME280;34064;44.942;0.008;2023-11-21T13:00:45;98998.78;;;16.78;59.69
47280;BME280;34064;44.942;0.008;2023-11-21T13:03:14;98994.13;;;16.80;59.92
47280;BME280;34064;44.942;0.008;2023-11-21T13:05:46;98995.06;;;17.07;60.09
47280;BME280;34064;44.942;0.008;2023-11-21T13:08:17;98979.09;;;17.24;59.37
47280;BME280;34064;44.942;0.008;2023-11-21T13:10:55;98982.78;;;17.23;58.62
47280;BME280;34064;44.942;0.008;2023-11-21T13:13:22;98996.75;;;17.08;58.84
47280;BME280;34064;44.942;0.008;2023-11-21T13:15:54;99002.03;;;17.00;58.68
47280;BME280;34064;44.942;0.008;2023-11-21T13:18:27;99010.63;;;16.86;59.19
47280;BME280;34064;44.942;0.008;2023-11-21T13:20:54;99014.59;;;16.81;59.08
47280;BME280;34064;44.942;0.008;2023-11-21T13:23:21;99024.81;;;16.68;59.99